Time;durP1;ratioP1;P1;durP2;ratioP2;P2;SDS_P1;SDS_P2;PMS_P1;PMS_P2;Temp;Humidity;BMP_temperature;BMP_pressure;BME280_temperature;BME280_humidity;BME280_pressure;Samples;Min_cycle;Max_cycle;Signal;HPM_P1;HPM_P2
2021/11/08 00:00:28;;;;;;;15.40;10.20;;;;;;;8.30;87.23;99915.09;4939495;29;20040;-86
2021/11/08 00:03:06;;;;;;;11.77;10.50;;;;;;;8.50;86.01;99895.19;4942737;29;20134;-86
2021/11/08 00:05:38;;;;;;;12.48;10.27;;;;;;;8.46;86.26;99888.44;4936732;29;20475;-87
2021/11/08 00:08:06;;;;;;;12.68;10.07;;;;;;;8.59;85.36;99890.41;4934779;29;20036;-88
2021/11/08 00:10:35;;;;;;;15.68;10.02;;;;;;;8.71;83.39;99888.97;4934883;29;20070;-87
2021/11/08 00:13:05;;;;;;;12.57;10.10;;;;;;;8.68;83.42;99880.47;4933643;29;20067;-85
2021/11/08 00:18:08;;;;;;;12.95;9.70;;;;;;;8.63;85.41;99875.50;4933467;29;20055;-87
2021/11/08 00:20:43;;;;;;;12.02;10.25;;;;;;;8.60;85.20;99875.66;4933492;29;20052;-87
2021/11/08 00:23:10;;;;;;;15.52;10.40;;;;;;;8.63;84.58;99875.50;4933789;29;20093;-86
2021/11/08 00:25:40;;;;;;;13.75;10.52;;;;;;;8.43;85.55;99880.81;4933271;29;20040;-86
2021/11/08 00:28:12;;;;;;;13.25;9.25;;;;;;;8.56;84.31;99874.94;4931570;29;20093;-85
2021/11/08 00:30:40;;;;;;;16.65;10.20;;;;;;;8.73;83.48;99868.94;4929274;29;20048;-86
2021/11/08 00:33:09;;;;;;;17.77;11.10;;;;;;;8.75;82.96;99867.13;4932796;29;20036;-86
2021/11/08 00:35:37;;;;;;;14.38;10.45;;;;;;;8.69;83.27;99859.63;4933233;29;20447;-89
2021/11/08 00:38:05;;;;;;;15.63;9.75;;;;;;;8.76;83.45;99853.22;4932900;29;20548;-88
2021/11/08 00:40:32;;;;;;;15.70;10.38;;;;;;;8.71;82.34;99844.78;4932525;29;20059;-89
2021/11/08 00:42:58;;;;;;;15.75;10.35;;;;;;;8.80;82.12;99846.09;4933146;29;20040;-89
2021/11/08 00:45:26;;;;;;;14.32;10.55;;;;;;;8.84;82.00;99848.50;4931831;29;20043;-86
2021/11/08 00:47:55;;;;;;;12.82;11.40;;;;;;;8.79;82.44;99841.81;4932754;29;20490;-86
2021/11/08 00:50:22;;;;;;;14.30;10.93;;;;;;;8.81;82.34;99833.03;4931134;29;20106;-84
2021/11/08 00:52:49;;;;;;;13.15;10.55;;;;;;;8.94;82.03;99820.25;4929927;29;20490;-87
2021/11/08 00:55:16;;;;;;;14.70;11.75;;;;;;;8.96;82.01;99821.03;4930889;29;20048;-87
2021/11/08 00:57:45;;;;;;;13.73;11.32;;;;;;;8.76;83.63;99816.81;4931638;29;20415;-88
2021/11/08 01:00:15;;;;;;;14.80;10.88;;;;;;;8.69;84.66;99806.81;4931339;29;20066;-87
2021/11/08 01:02:43;;;;;;;17.80;10.63;;;;;;;8.50;86.44;99807.69;4931704;29;20048;-88
2021/11/08 01:05:13;;;;;;;13.00;10.93;;;;;;;8.48;86.30;99809.53;4931861;29;20098;-88
2021/11/08 01:07:40;;;;;;;16.77;13.88;;;;;;;8.57;84.81;99805.63;4932116;29;20482;-85
2021/11/08 01:10:10;;;;;;;14.68;12.82;;;;;;;8.39;85.78;99809.97;4932349;29;20071;-86
2021/11/08 01:12:37;;;;;;;17.40;11.00;;;;;;;8.29;87.56;99804.34;4932385;29;20047;-86
2021/11/08 01:15:06;;;;;;;14.77;11.48;;;;;;;8.30;87.53;99797.38;4932620;29;20494;-86
2021/11/08 01:17:34;;;;;;;15.68;11.40;;;;;;;8.43;86.77;99784.69;4932562;29;20043;-87
2021/11/08 01:20:02;;;;;;;13.80;11.05;;;;;;;8.36;87.72;99787.59;4932511;29;20040;-87
2021/11/08 01:22:31;;;;;;;17.85;13.68;;;;;;;8.47;86.20;99781.00;4932312;29;20399;-87
2021/11/08 01:24:59;;;;;;;17.98;12.88;;;;;;;8.56;85.28;99765.00;4932202;29;20395;-87
2021/11/08 01:27:35;;;;;;;17.33;12.48;;;;;;;8.48;85.51;99760.19;4932200;29;20052;-86
2021/11/08 01:30:08;;;;;;;19.98;12.20;;;;;;;8.33;85.89;99747.91;4931381;29;20055;-86
2021/11/08 01:32:35;;;;;;;15.77;11.60;;;;;;;8.39;84.48;99742.44;4932368;29;20048;-85
2021/11/08 01:35:04;;;;;;;19.30;12.20;;;;;;;8.43;83.76;99737.94;4931980;29;20525;-85
2021/11/08 01:37:30;;;;;;;19.70;12.32;;;;;;;8.30;84.53;99740.25;4932563;29;20442;-85
2021/11/08 01:39:58;;;;;;;17.67;11.95;;;;;;;8.30;84.80;99737.66;4932391;29;20048;-85
2021/11/08 01:42:25;;;;;;;13.07;10.57;;;;;;;8.32;85.66;99728.91;4932344;29;20078;-85
2021/11/08 01:44:52;;;;;;;16.98;13.40;;;;;;;8.26;85.46;99737.00;4931978;29;20052;-85
2021/11/08 01:47:19;;;;;;;15.48;10.70;;;;;;;8.30;85.33;99738.50;4932500;29;20047;-85
2021/11/08 01:49:45;;;;;;;14.32;10.70;;;;;;;8.38;85.56;99730.38;4931374;29;20075;-85
2021/11/08 01:52:12;;;;;;;14.52;10.82;;;;;;;8.32;85.60;99736.69;4932182;29;20101;-84
2021/11/08 01:54:39;;;;;;;13.73;11.50;;;;;;;8.44;85.00;99740.47;4931829;29;20056;-86
2021/11/08 01:57:07;;;;;;;11.43;10.20;;;;;;;8.55;85.13;99732.13;4932133;29;20043;-86
2021/11/08 01:59:34;;;;;;;15.52;11.07;;;;;;;8.61;85.34;99731.81;4932302;29;20455;-88
2021/11/08 02:02:02;;;;;;;13.15;11.40;;;;;;;8.49;84.19;99727.25;4932451;29;20134;-88
2021/11/08 02:04:29;;;;;;;17.27;11.57;;;;;;;8.52;84.00;99735.75;4932881;29;20494;-88
2021/11/08 02:06:56;;;;;;;15.77;10.75;;;;;;;8.66;83.44;99727.25;4935304;29;20075;-87
2021/11/08 02:09:23;;;;;;;13.10;11.13;;;;;;;8.76;83.40;99738.84;4935241;29;20063;-86
2021/11/08 02:11:50;;;;;;;14.98;11.90;;;;;;;8.44;84.39;99734.44;4935617;29;20048;-89
2021/11/08 02:14:17;;;;;;;14.20;10.80;;;;;;;8.31;86.73;99742.81;4935470;29;20054;-90
2021/11/08 02:16:44;;;;;;;15.70;12.80;;;;;;;8.36;88.55;99748.66;4935198;29;20482;-89
2021/11/08 02:19:12;;;;;;;17.30;12.68;;;;;;;8.34;88.92;99750.41;4935603;29;20044;-90
2021/11/08 02:21:39;;;;;;;14.50;11.07;;;;;;;8.27;89.68;99736.06;4935037;29;20040;-90
2021/11/08 02:24:11;;;;;;;13.57;11.60;;;;;;;8.17;90.77;99734.00;4935370;29;20112;-90
2021/11/08 02:26:38;;;;;;;13.95;10.13;;;;;;;8.26;91.40;99741.34;4935564;29;20441;-88
2021/11/08 02:29:05;;;;;;;14.07;11.38;;;;;;;8.50;91.24;99728.94;4935052;29;20402;-87
2021/11/08 02:31:33;;;;;;;14.90;11.68;;;;;;;8.43;91.08;99731.00;4935530;29;20446;-86
2021/11/08 02:34:00;;;;;;;13.32;11.88;;;;;;;8.41;91.35;99730.22;4934744;29;20040;-86
2021/11/08 02:36:29;;;;;;;17.45;11.48;;;;;;;8.42;92.63;99731.09;4935088;29;20445;-87
2021/11/08 02:38:58;;;;;;;13.13;10.75;;;;;;;8.32;93.53;99731.50;4934404;29;20581;-86
2021/11/08 02:41:26;;;;;;;16.00;11.40;;;;;;;8.31;93.56;99729.81;4935072;29;20031;-86
2021/11/08 02:43:54;;;;;;;14.73;11.95;;;;;;;7.97;95.64;99735.78;4934520;29;20048;-85
2021/11/08 02:46:25;;;;;;;15.45;11.43;;;;;;;8.02;96.44;99732.97;4935197;29;20077;-86
2021/11/08 02:48:52;;;;;;;13.07;10.73;;;;;;;8.14;95.19;99728.00;4934662;29;20494;-87
2021/11/08 02:51:23;;;;;;;15.07;10.80;;;;;;;8.34;94.34;99721.84;4934963;29;20409;-86
2021/11/08 02:53:54;;;;;;;13.63;11.63;;;;;;;8.65;92.44;99731.59;4935049;29;20055;-85
2021/11/08 02:56:21;;;;;;;15.05;10.70;;;;;;;8.63;92.39;99725.66;4934938;29;20121;-87
2021/11/08 02:58:49;;;;;;;15.15;10.23;;;;;;;8.75;91.89;99736.34;4934658;29;20142;-88
2021/11/08 03:01:19;;;;;;;12.77;10.70;;;;;;;8.88;90.54;99737.38;4934359;29;20055;-84
2021/11/08 03:03:57;;;;;;;16.05;10.88;;;;;;;9.02;89.87;99728.91;4934695;29;20040;-87
2021/11/08 03:06:30;;;;;;;12.13;10.48;;;;;;;9.11;88.61;99725.81;4933225;29;20043;-87
2021/11/08 03:09:31;;;;;;;15.75;11.80;;;;;;;9.08;88.45;99721.59;4934513;29;20056;-86
2021/11/08 03:12:03;;;;;;;14.82;10.80;;;;;;;9.02;89.24;99726.28;4934425;28;20044;-86
2021/11/08 03:14:32;;;;;;;13.68;10.25;;;;;;;8.82;91.07;99735.09;4932311;29;20150;-87
2021/11/08 03:17:00;;;;;;;16.13;11.75;;;;;;;8.59;92.58;99733.69;4917638;28;20047;-87
2021/11/08 03:21:59;;;;;;;15.43;12.90;;;;;;;8.44;92.79;99732.66;4933738;29;20132;-87
2021/11/08 03:30:01;;;;;;;18.15;13.85;;;;;;;8.72;90.94;99750.31;4934028;29;20039;-87
2021/11/08 03:32:27;;;;;;;17.67;13.63;;;;;;;8.59;91.63;99754.47;4933806;29;20109;-85
2021/11/08 03:37:22;;;;;;;15.98;13.07;;;;;;;8.77;91.01;99766.53;4934125;29;20164;-86
2021/11/08 03:39:52;;;;;;;18.42;13.25;;;;;;;8.78;91.24;99767.34;4933967;29;20048;-86
2021/11/08 03:42:19;;;;;;;19.27;14.65;;;;;;;8.67;91.68;99773.09;4934226;29;20043;-86
2021/11/08 03:44:47;;;;;;;17.98;13.75;;;;;;;8.35;93.89;99777.22;4933552;29;20036;-86
2021/11/08 03:47:15;;;;;;;18.92;14.77;;;;;;;8.27;95.70;99780.22;4933641;29;20093;-86
2021/11/08 03:49:42;;;;;;;15.95;12.85;;;;;;;8.55;94.84;99789.28;4933743;29;20040;-86
2021/11/08 03:52:09;;;;;;;21.40;15.73;;;;;;;8.55;95.32;99779.75;4933716;29;20043;-86
2021/11/08 03:54:36;;;;;;;24.35;14.73;;;;;;;8.48;95.33;99782.72;4933253;29;20052;-86
2021/11/08 03:57:03;;;;;;;16.65;14.60;;;;;;;8.80;94.58;99781.13;4933853;29;20040;-86
2021/11/08 03:59:30;;;;;;;17.20;13.40;;;;;;;8.82;93.77;99780.13;4932529;29;20044;-86
2021/11/08 04:02:00;;;;;;;19.35;12.43;;;;;;;8.76;94.23;99777.00;4933879;29;20094;-85
2021/11/08 04:04:28;;;;;;;18.17;12.82;;;;;;;8.81;93.63;99773.25;4933411;29;20052;-86
2021/11/08 04:06:57;;;;;;;14.65;12.68;;;;;;;8.82;94.31;99763.69;4933529;29;20051;-86
2021/11/08 04:09:24;;;;;;;13.95;11.45;;;;;;;8.72;95.98;99765.06;4933266;29;20435;-86
2021/11/08 04:11:54;;;;;;;17.13;12.80;;;;;;;8.61;96.73;99763.84;4933305;29;20056;-84
2021/11/08 04:14:23;;;;;;;18.65;11.48;;;;;;;8.77;95.93;99769.13;4933645;29;20079;-84
2021/11/08 04:16:51;;;;;;;17.40;13.15;;;;;;;8.75;94.96;99764.94;4932104;29;20395;-84
2021/11/08 04:19:18;;;;;;;18.00;13.27;;;;;;;8.77;94.51;99765.69;4915932;29;20048;-84
2021/11/08 04:21:45;;;;;;;13.52;11.45;;;;;;;8.69;95.18;99771.28;4933286;29;20047;-84
2021/11/08 04:24:13;;;;;;;15.50;12.63;;;;;;;8.55;96.21;99778.91;4933345;29;20047;-84
2021/11/08 04:26:39;;;;;;;12.95;11.65;;;;;;;8.57;96.64;99777.06;4933106;29;20102;-85
2021/11/08 04:29:06;;;;;;;13.43;11.23;;;;;;;8.74;95.75;99778.84;4933208;29;20048;-84
2021/11/08 04:31:37;;;;;;;41.03;14.18;;;;;;;8.48;97.57;99783.56;4932599;29;20043;-85
2021/11/08 04:34:32;;;;;;;13.80;10.93;;;;;;;8.45;98.03;99783.69;4933041;29;20036;-85
2021/11/08 05:30:12;;;;;;;21.17;13.35;;;;;;;8.78;98.86;99729.22;4932369;28;20052;-85
2021/11/08 05:32:44;;;;;;;19.17;12.98;;;;;;;8.66;99.57;99725.47;4931886;29;20052;-85
2021/11/08 05:35:15;;;;;;;14.93;12.52;;;;;;;8.68;99.77;99714.16;4932245;28;20048;-86
2021/11/08 05:37:44;;;;;;;17.90;13.57;;;;;;;8.74;99.69;99712.13;4932048;29;20059;-86
2021/11/08 05:40:14;;;;;;;18.00;12.05;;;;;;;8.76;99.66;99710.28;4931762;29;20043;-86
2021/11/08 05:42:42;;;;;;;17.92;14.18;;;;;;;8.62;100.00;99728.31;4931252;29;20094;-86
2021/11/08 05:45:14;;;;;;;17.42;13.55;;;;;;;8.72;100.00;99724.34;4931441;29;20048;-85
2021/11/08 05:47:41;;;;;;;22.80;14.65;;;;;;;8.69;99.93;99716.72;4933145;29;20059;-86
2021/11/08 05:50:11;;;;;;;15.45;13.13;;;;;;;8.88;99.00;99719.19;4951517;28;20043;-85
2021/11/08 05:52:38;;;;;;;22.02;14.77;;;;;;;8.89;98.57;99713.94;4954980;28;20035;-86
2021/11/08 05:55:09;;;;;;;23.27;14.85;;;;;;;8.91;98.08;99714.69;4943124;29;20044;-86
2021/11/08 05:57:47;;;;;;;21.25;15.55;;;;;;;8.67;100.00;99726.31;4931285;29;20055;-87
2021/11/08 06:50:16;;;;;;;17.88;14.48;;;;;;;8.67;100.00;99827.66;4928613;29;20043;-87
2021/11/08 06:52:49;;;;;;;15.77;12.45;;;;;;;8.98;99.95;99820.94;4930909;29;20500;-84
2021/11/08 06:55:18;;;;;;;17.27;14.10;;;;;;;8.97;100.00;99821.88;4932994;29;20569;-87
2021/11/08 06:57:46;;;;;;;16.63;13.27;;;;;;;8.85;100.00;99828.53;4932140;29;20102;-90
2021/11/08 07:00:15;;;;;;;19.45;14.35;;;;;;;8.70;100.00;99835.31;4931061;29;20050;-95
2021/11/08 07:02:43;;;;;;;19.20;15.52;;;;;;;8.79;100.00;99840.06;4934140;29;20514;-87
2021/11/08 07:05:10;;;;;;;19.60;15.13;;;;;;;8.84;100.00;99840.69;4934177;29;20055;-96
2021/11/08 07:07:37;;;;;;;20.55;15.43;;;;;;;8.97;100.00;99850.47;4938429;29;20084;-90
2021/11/08 07:10:06;;;;;;;15.57;13.48;;;;;;;9.06;100.00;99850.88;4954228;28;20058;-92
2021/11/08 07:12:33;;;;;;;23.88;14.45;;;;;;;9.11;99.51;99856.66;4956338;28;20073;-94
2021/11/08 07:15:00;;;;;;;21.75;13.85;;;;;;;9.43;96.94;99865.44;4937118;29;20062;-93
2021/11/08 07:17:27;;;;;;;18.60;14.57;;;;;;;9.70;95.21;99875.34;4937564;29;20081;-95
2021/11/08 07:19:53;;;;;;;19.50;15.15;;;;;;;9.55;95.19;99876.13;4929603;28;20094;-89
2021/11/08 07:22:20;;;;;;;22.33;17.17;;;;;;;9.27;97.03;99880.16;4931158;28;20451;-89
2021/11/08 07:24:47;;;;;;;24.33;18.42;;;;;;;9.58;94.62;99886.38;4932152;28;20426;-89
2021/11/08 07:27:14;;;;;;;21.17;17.35;;;;;;;9.70;93.10;99901.38;4956364;28;20034;-91
2021/11/08 07:29:41;;;;;;;26.70;18.95;;;;;;;9.67;92.75;99902.34;4946163;28;20044;-89
2021/11/08 07:32:08;;;;;;;22.50;17.38;;;;;;;9.76;91.16;99900.22;4933561;29;20036;-86
2021/11/08 07:34:35;;;;;;;25.58;17.48;;;;;;;9.91;90.31;99896.81;4928725;29;20111;-92
2021/11/08 07:37:03;;;;;;;28.58;18.88;;;;;;;10.20;89.56;99890.03;4932449;29;20130;-80
2021/11/08 07:39:31;;;;;;;28.33;18.05;;;;;;;10.14;89.10;99895.59;4932658;29;20509;-87
2021/11/08 07:41:59;;;;;;;22.13;17.73;;;;;;;9.96;90.71;99900.84;4934556;29;20040;-91
2021/11/08 07:44:27;;;;;;;23.17;18.63;;;;;;;10.05;90.40;99901.28;4946262;28;20097;-92
2021/11/08 07:46:54;;;;;;;25.90;18.55;;;;;;;10.32;88.99;99896.38;4952039;29;20043;-93
2021/11/08 07:49:20;;;;;;;26.63;20.70;;;;;;;10.24;89.52;99891.59;4956039;28;20020;-93
2021/11/08 07:51:49;;;;;;;28.55;22.10;;;;;;;10.23;89.73;99895.09;4952483;28;20425;-95
2021/11/08 07:54:17;;;;;;;26.50;21.20;;;;;;;10.23;90.32;99900.31;4935344;29;20117;-94
2021/11/08 07:56:47;;;;;;;32.75;22.98;;;;;;;10.17;91.24;99890.19;4936008;29;20210;-94
2021/11/08 07:59:16;;;;;;;27.30;22.30;;;;;;;10.26;92.18;99892.34;4932412;29;20043;-96
2021/11/08 08:01:46;;;;;;;32.97;22.67;;;;;;;10.23;92.39;99890.75;4931911;28;20103;-90
2021/11/08 08:04:13;;;;;;;27.55;20.10;;;;;;;9.98;94.41;99904.22;4926379;28;20044;-93
2021/11/08 08:06:40;;;;;;;24.90;20.08;;;;;;;10.09;94.32;99892.38;4921897;28;20039;-91
2021/11/08 08:09:07;;;;;;;25.00;19.95;;;;;;;10.46;91.90;99899.06;4932167;29;20044;-92
2021/11/08 08:11:34;;;;;;;25.08;18.30;;;;;;;10.57;89.88;99901.09;4932594;28;20063;-95
2021/11/08 08:14:03;;;;;;;23.05;16.90;;;;;;;10.56;89.81;99913.28;4929453;29;20126;-91
2021/11/08 08:16:30;;;;;;;22.13;16.95;;;;;;;10.48;89.85;99918.06;4924700;28;20047;-93
2021/11/08 08:18:57;;;;;;;16.80;13.98;;;;;;;10.47;88.73;99924.19;4927600;29;20059;-96
2021/11/08 08:21:24;;;;;;;21.90;13.07;;;;;;;10.45;88.79;99931.28;4944107;28;20070;-96
2021/11/08 08:23:56;;;;;;;36.88;25.27;;;;;;;10.19;90.86;99943.91;4938408;29;20111;-93
2021/11/08 08:26:26;;;;;;;35.00;29.10;;;;;;;10.09;92.52;99949.69;4937260;29;20044;-92
2021/11/08 08:28:53;;;;;;;48.47;33.08;;;;;;;10.02;92.40;99959.59;4934982;29;20495;-91
2021/11/08 08:31:21;;;;;;;50.58;33.58;;;;;;;10.08;92.63;99958.41;4956897;28;20062;-93
2021/11/08 08:33:49;;;;;;;44.70;31.63;;;;;;;10.04;93.03;99962.09;4933387;29;20062;-95
2021/11/08 08:36:15;;;;;;;41.50;31.58;;;;;;;10.14;93.13;99969.34;4943445;29;20047;-91
2021/11/08 08:38:43;;;;;;;37.33;30.02;;;;;;;10.13;92.97;99977.25;4929986;29;20111;-91
2021/11/08 08:41:10;;;;;;;49.28;31.38;;;;;;;10.22;92.38;99974.97;4932878;29;20036;-90
2021/11/08 08:43:37;;;;;;;37.53;30.13;;;;;;;10.16;92.40;99982.28;4932268;28;20047;-91
2021/11/08 08:46:04;;;;;;;49.75;30.48;;;;;;;10.24;91.47;99995.78;4932999;29;20074;-93
2021/11/08 08:48:31;;;;;;;45.97;31.75;;;;;;;9.98;94.68;99994.50;4933194;29;20043;-90
2021/11/08 08:50:59;;;;;;;42.63;33.17;;;;;;;9.71;94.21;100001.97;4932435;29;20040;-89
2021/11/08 08:53:26;;;;;;;47.17;36.90;;;;;;;9.73;95.68;100004.47;4932861;29;20047;-94
2021/11/08 08:56:16;;;;;;;50.97;37.78;;;;;;;9.59;96.74;100024.25;4965040;28;20046;-90
2021/11/08 08:58:42;;;;;;;44.60;33.70;;;;;;;9.50;97.32;100027.28;4934333;28;20047;-95
2021/11/08 09:01:09;;;;;;;35.67;28.15;;;;;;;9.23;96.15;100036.44;4923842;29;20047;-95
2021/11/08 09:03:36;;;;;;;42.65;27.20;;;;;;;9.31;94.87;100035.13;4924299;29;20113;-93
2021/11/08 09:06:04;;;;;;;39.50;27.23;;;;;;;9.34;95.48;100039.34;4931571;29;20048;-83
2021/11/08 09:08:32;;;;;;;37.08;25.27;;;;;;;9.38;94.81;100051.31;4931021;29;20453;-80
2021/11/08 09:10:59;;;;;;;32.22;23.67;;;;;;;9.30;95.81;100054.25;4931529;29;20043;-83
2021/11/08 09:13:26;;;;;;;31.55;23.67;;;;;;;9.24;97.00;100059.75;4931419;28;20043;-80
2021/11/08 09:15:54;;;;;;;40.45;24.60;;;;;;;9.23;98.72;100067.63;4928173;29;20109;-85
2021/11/08 09:18:20;;;;;;;34.05;24.48;;;;;;;9.18;100.00;100073.06;4931556;29;20046;-82
2021/11/08 09:20:47;;;;;;;33.50;25.55;;;;;;;9.03;100.00;100076.38;4930838;29;20487;-80
2021/11/08 09:23:14;;;;;;;36.60;24.08;;;;;;;9.15;100.00;100075.78;4931447;28;20114;-82
2021/11/08 09:25:42;;;;;;;36.85;23.92;;;;;;;9.26;100.00;100081.31;4925816;29;20052;-84
2021/11/08 09:28:09;;;;;;;36.22;24.52;;;;;;;9.09;100.00;100076.06;4931958;29;20054;-81
2021/11/08 09:30:41;;;;;;;22.70;15.70;;;;;;;8.71;100.00;100093.41;4930948;28;20070;-88
2021/11/08 09:33:09;;;;;;;21.25;14.18;;;;;;;8.62;100.00;100092.91;4931321;29;20059;-82
2021/11/08 09:35:43;;;;;;;19.42;13.60;;;;;;;8.71;100.00;100102.06;4931400;28;20054;-88
2021/11/08 09:38:10;;;;;;;20.13;14.20;;;;;;;8.58;100.00;100101.78;4925783;29;20044;-84
2021/11/08 09:40:39;;;;;;;32.67;25.08;;;;;;;8.30;100.00;100117.66;4931199;29;20105;-87
2021/11/08 09:43:12;;;;;;;26.75;23.15;;;;;;;8.30;100.00;100122.84;4927300;29;20050;-81
2021/11/08 09:45:41;;;;;;;35.58;24.50;;;;;;;7.92;100.00;100129.63;4931207;28;20040;-82
2021/11/08 09:48:11;;;;;;;31.40;25.23;;;;;;;7.68;100.00;100141.03;4930772;29;20079;-82
2021/11/08 09:50:44;;;;;;;33.63;27.20;;;;;;;7.59;100.00;100140.47;4928700;29;20048;-79
2021/11/08 09:53:12;;;;;;;34.72;25.77;;;;;;;7.66;100.00;100142.81;4928786;29;20039;-82
2021/11/08 09:55:41;;;;;;;29.80;26.55;;;;;;;7.67;100.00;100139.31;4931241;29;20117;-82
2021/11/08 09:58:09;;;;;;;30.88;27.00;;;;;;;7.71;100.00;100143.47;4930919;29;20044;-83
2021/11/08 10:00:35;;;;;;;33.45;29.35;;;;;;;7.60;100.00;100141.31;4930910;28;20070;-82
2021/11/08 10:03:16;;;;;;;31.65;26.52;;;;;;;7.41;100.00;100140.38;4928317;29;20157;-86
2021/11/08 10:05:46;;;;;;;28.40;24.67;;;;;;;7.23;100.00;100158.28;4928693;29;20106;-87
2021/11/08 10:08:20;;;;;;;25.42;21.02;;;;;;;7.16;100.00;100161.19;4930440;29;20036;-86
2021/11/08 10:10:50;;;;;;;27.92;23.13;;;;;;;7.31;100.00;100161.44;4929995;29;20139;-87
2021/11/08 10:13:19;;;;;;;32.10;22.60;;;;;;;7.37;100.00;100167.31;4926824;29;20476;-87
2021/11/08 10:15:49;;;;;;;28.15;24.48;;;;;;;7.45;100.00;100155.72;4930159;29;20048;-89
2021/11/08 10:18:18;;;;;;;32.47;24.00;;;;;;;8.05;100.00;100161.16;4930755;28;20143;-86
2021/11/08 10:20:48;;;;;;;27.30;22.42;;;;;;;7.81;100.00;100169.00;4924671;29;20094;-86
2021/11/08 10:23:19;;;;;;;29.17;23.52;;;;;;;7.73;100.00;100168.47;4930844;29;20058;-87
2021/11/08 10:25:47;;;;;;;30.25;24.63;;;;;;;8.03;100.00;100170.72;4927612;28;20046;-85
2021/11/08 10:28:18;;;;;;;30.90;22.63;;;;;;;8.01;100.00;100172.56;4934251;29;20471;-85
2021/11/08 10:30:48;;;;;;;29.27;23.08;;;;;;;7.88;100.00;100173.06;4933632;28;20453;-85
2021/11/08 10:33:19;;;;;;;26.25;22.38;;;;;;;8.00;100.00;100174.31;4933130;29;20446;-79
2021/11/08 10:35:55;;;;;;;38.15;24.52;;;;;;;8.00;100.00;100179.50;4933429;29;20040;-83
2021/11/08 10:38:28;;;;;;;39.92;25.27;;;;;;;7.88;100.00;100175.66;4934203;29;20102;-84
2021/11/08 10:40:59;;;;;;;31.40;24.97;;;;;;;7.72;100.00;100182.34;4934014;29;20047;-89
2021/11/08 10:43:27;;;;;;;30.98;23.30;;;;;;;7.70;100.00;100184.16;4930157;29;20071;-88
2021/11/08 10:45:58;;;;;;;31.83;25.23;;;;;;;8.07;100.00;100188.72;4933923;29;20090;-83
2021/11/08 10:48:31;;;;;;;29.17;23.80;;;;;;;8.28;100.00;100179.22;4933005;29;20094;-84
2021/11/08 10:51:02;;;;;;;30.55;24.38;;;;;;;8.47;100.00;100176.75;4933295;29;20486;-84
2021/11/08 10:53:30;;;;;;;31.13;24.83;;;;;;;8.66;100.00;100180.22;4933170;29;20036;-83
2021/11/08 10:56:06;;;;;;;28.20;23.80;;;;;;;8.88;100.00;100193.13;4933180;29;20044;-84
2021/11/08 10:58:34;;;;;;;31.42;22.77;;;;;;;8.82;100.00;100184.75;4933688;28;20109;-81
2021/11/08 11:01:02;;;;;;;28.25;22.90;;;;;;;8.88;100.00;100180.13;4933224;29;20039;-81
2021/11/08 11:03:30;;;;;;;27.98;23.20;;;;;;;9.13;100.00;100179.03;4931967;29;20074;-88
2021/11/08 11:06:02;;;;;;;23.63;20.15;;;;;;;9.28;100.00;100165.34;4933433;29;20036;-81
2021/11/08 11:08:31;;;;;;;24.70;20.38;;;;;;;9.31;100.00;100173.00;4933998;29;20188;-86
2021/11/08 11:11:01;;;;;;;21.52;17.40;;;;;;;9.53;100.00;100167.63;4933382;29;20039;-85
2021/11/08 11:13:29;;;;;;;20.38;17.88;;;;;;;9.50;100.00;100160.00;4934496;28;20048;-91
2021/11/08 11:16:02;;;;;;;20.73;17.45;;;;;;;9.63;100.00;100155.03;4931979;29;20043;-84
2021/11/08 11:18:36;;;;;;;21.58;17.98;;;;;;;9.54;100.00;100158.94;4933666;29;20052;-82
2021/11/08 11:21:15;;;;;;;21.33;16.63;;;;;;;9.73;100.00;100148.47;4933280;29;20048;-83
2021/11/08 11:23:45;;;;;;;16.63;13.35;;;;;;;9.93;100.00;100150.13;4932044;29;20044;-85
2021/11/08 11:26:13;;;;;;;15.55;13.95;;;;;;;9.74;100.00;100144.94;4933029;29;20141;-87
2021/11/08 11:28:44;;;;;;;15.45;12.98;;;;;;;10.13;100.00;100141.34;4946861;28;20044;-87
2021/11/08 11:31:15;;;;;;;14.05;11.85;;;;;;;10.15;100.00;100139.50;4931454;29;20070;-88
2021/11/08 11:33:42;;;;;;;11.63;10.48;;;;;;;10.22;100.00;100138.25;4933290;28;20048;-85
2021/11/08 11:36:12;;;;;;;12.95;11.55;;;;;;;10.20;100.00;100134.91;4932071;29;20135;-80
2021/11/08 11:38:44;;;;;;;12.57;10.82;;;;;;;9.92;100.00;100127.63;4932275;28;20520;-79
2021/11/08 11:41:17;;;;;;;12.98;11.57;;;;;;;9.76;100.00;100127.53;4932912;28;20482;-86
2021/11/08 11:44:11;;;;;;;12.60;11.30;;;;;;;9.55;100.00;100129.38;4930929;29;20048;-85
2021/11/08 11:46:42;;;;;;;8.98;8.07;;;;;;;9.70;100.00;100123.47;4939164;28;20489;-85
2021/11/08 11:49:11;;;;;;;11.02;9.43;;;;;;;9.48;100.00;100130.59;4932335;29;20072;-85
2021/11/08 11:51:41;;;;;;;10.10;9.05;;;;;;;9.31;100.00;100128.78;4931070;28;20044;-86
2021/11/08 11:54:10;;;;;;;9.88;8.93;;;;;;;8.95;100.00;100126.13;4930652;29;20044;-85
2021/11/08 11:56:40;;;;;;;9.15;8.25;;;;;;;9.27;100.00;100127.25;4933171;28;20548;-85
2021/11/08 11:59:08;;;;;;;10.30;9.30;;;;;;;9.29;100.00;100122.81;4936435;29;20047;-85
2021/11/08 12:01:36;;;;;;;9.50;8.50;;;;;;;8.89;100.00;100121.19;4939395;29;20106;-85
2021/11/08 12:04:23;;;;;;;9.55;8.60;;;;;;;9.29;100.00;100125.41;4942642;28;20048;-83
2021/11/08 12:06:54;;;;;;;10.10;8.48;;;;;;;9.67;100.00;100120.16;4946716;29;20453;-82
2021/11/08 12:09:21;;;;;;;11.25;8.80;;;;;;;9.67;100.00;100120.16;4931236;29;20098;-86
2021/11/08 12:11:53;;;;;;;10.38;9.38;;;;;;;9.43;100.00;100120.41;4928578;29;20055;-81
2021/11/08 12:14:26;;;;;;;13.32;10.52;;;;;;;9.08;100.00;100116.00;4930392;29;20043;-81
2021/11/08 12:17:03;;;;;;;13.07;10.87;;;;;;;9.14;100.00;100106.16;4928807;29;20048;-79
2021/11/08 12:19:36;;;;;;;14.63;12.98;;;;;;;8.86;100.00;100110.94;4929876;28;20353;-82
2021/11/08 12:22:17;;;;;;;13.25;11.77;;;;;;;8.93;100.00;100117.53;4930536;29;20046;-82
2021/11/08 12:25:07;;;;;;;14.45;12.95;;;;;;;9.59;100.00;100112.72;4931151;29;20074;-78
2021/11/08 12:27:39;;;;;;;12.73;11.43;;;;;;;9.67;100.00;100120.16;4929544;29;20102;-80
2021/11/08 12:30:13;;;;;;;12.55;11.13;;;;;;;9.73;100.00;100117.25;4930013;29;20044;-79
2021/11/08 12:32:57;;;;;;;12.93;11.63;;;;;;;9.53;100.00;100107.78;4927776;29;20051;-82
2021/11/08 12:35:35;;;;;;;15.82;10.77;;;;;;;9.57;100.00;100111.94;4930880;28;20366;-81
2021/11/08 12:38:18;;;;;;;12.32;10.68;;;;;;;9.58;100.00;100110.16;4931306;29;20051;-86
2021/11/08 12:40:46;;;;;;;12.73;11.43;;;;;;;9.64;100.00;100105.53;4931305;29;20047;-80
2021/11/08 12:43:24;;;;;;;13.80;11.57;;;;;;;9.84;100.00;100104.53;4940685;29;20399;-84
2021/11/08 12:45:52;;;;;;;12.10;10.90;;;;;;;9.69;100.00;100102.69;4928730;29;20048;-83
2021/11/08 12:48:19;;;;;;;11.95;10.75;;;;;;;10.07;100.00;100103.44;4928037;29;20401;-83
2021/11/08 12:50:53;;;;;;;13.68;11.90;;;;;;;9.68;100.00;100096.63;4930372;29;20040;-84
2021/11/08 12:53:24;;;;;;;16.98;10.32;;;;;;;9.93;100.00;100092.84;4928708;29;20445;-85
2021/11/08 12:55:53;;;;;;;13.05;11.65;;;;;;;9.93;100.00;100090.25;4929408;29;20044;-82
2021/11/08 12:58:43;;;;;;;14.88;13.32;;;;;;;10.00;100.00;100081.19;4930347;29;20044;-82
2021/11/08 13:01:15;;;;;;;13.00;11.27;;;;;;;10.06;100.00;100078.28;4929128;29;20047;-82
2021/11/08 13:03:45;;;;;;;12.02;10.02;;;;;;;9.99;100.00;100079.50;4930552;29;20051;-83
2021/11/08 13:06:32;;;;;;;11.98;9.07;;;;;;;9.83;100.00;100073.38;4934677;29;20040;-81
2021/11/08 13:09:05;;;;;;;11.30;7.75;;;;;;;10.16;100.00;100076.06;4928564;29;20044;-84
2021/11/08 13:11:46;;;;;;;10.48;9.48;;;;;;;10.29;100.00;100071.94;4928797;29;20043;-84
2021/11/08 13:14:26;;;;;;;8.82;7.65;;;;;;;10.57;100.00;100058.31;4933812;29;20056;-83
2021/11/08 13:17:11;;;;;;;13.95;11.63;;;;;;;10.59;100.00;100063.44;4929902;29;20506;-83
2021/11/08 13:19:45;;;;;;;10.60;9.50;;;;;;;10.17;100.00;100062.09;4944598;28;20106;-83
2021/11/08 13:22:15;;;;;;;;;;;;;;;10.25;100.00;100051.34;4930042;29;20079;-82
2021/11/08 13:24:42;;;;;;;11.75;10.55;;;;;;;10.52;100.00;100057.72;4931540;29;20289;-84
2021/11/08 13:27:19;;;;;;;11.63;10.45;;;;;;;10.50;100.00;100056.97;4930668;28;20453;-84